FLIGHT INFORMATION
United Airlines

UAL1670

At Arrival Gate

KSFO
 PHNL
DATE: 2019-11-13
GATE:  -
GATE DEPARTURE: 03:00
TAKEOFF: 03:34
DATE: 2019-11-13
GATE:  -
LANDING: 08:45
GATE ARRIVAL: 08:51
FLIGHT DATA
Crew: KYLE RODGERS
Speed: 467 kts Altitude: 34000 ft
Stage Length: 2083 nm
Route: 
Block Time: 5.9 Flight Time: 5.2
Fuel Used: 33864 LB
TRACK DATA
50000 FT1000 KTAltitudeSpeed
AIRCRAFT INFORMATION
Aircraft Type: B739ERBW
Registration: N37419
SELCAL:  MSN/LN: 31666 / 2553
Operator: UNITED AIRLINES
Flights: 10 Block Time: 32 Flight Time: 28.8
Fuel Used: 192577 LB
  • DEPARTURE INFORMATION
    Date: 2019-11-13
    Airport: KSFO
    Gate:  -
    Gate Departure: 03:00
    Takeoff: 03:34
    ARRIVAL INFORMATION
    Date: 2019-11-13
    Airport: PHNL
    Gate:  -
    Landing: 08:45
    Gate Arrival: 08:51
  • FLIGHT DATA
    Crew: KYLE RODGERS
    Speed: 467 kts Altitude: 34000 ft
    Stage Length: 1125 nm
    Route: 
    Block Time: 5.9 Flight Time: 5.2
    Fuel Used: 33864 LB
  • AIRCRAFT INFORMATION
    Aircraft Type: B739ERBW
    Registration: N37419
    SELCAL:  MSN/LN: 31666 / 2553
    Operator: United Airlines
    Flights: 10 Block Time: 32 Flight Time: 28.8
    Fuel Used: 192577 LB

DATALINK LOG | Newest first | Current as of: 2020-05-25 11:28:38
LABEL ID SEQUENCE CONTENT Dn/Up
QD512408:51 10.8▼ Dn
QC465008:45▼ Dn
2U1800PHNL 130653Z 10007KT 10SM FEW024 26/20 A3000 RMK AO2 SLP159 T02610200▲ Up
2S1532PHNL▼ Dn
QB340403:34▼ Dn
2U0850KSFO 130256Z 28009KT 10SM FEW200 15/08 A2999 RMK AO2 SLP157 T01500078 55002▲ Up
2S0735KSFO▼ Dn
QA014303:00 44.8▼ Dn
A35639CLEARED TO PHNL VIA SFO BEBOP R464 BAART R464 BITTA MAGGI3. SQUAWK 2745.▲ Up
B35413KSFO PHNL UAL1670 N37419 ▼ Dn
A35445CLEARED TO PHNL VIA SFO BEBOP R464 BAART R464 BITTA MAGGI3. SQUAWK 6004.▲ Up
Q05335[LINK ACK]▲ Up
Q05150[LINK TEST]▼ Dn


AIRCRAFT HISTORY
FLIGHT DATE FLIGHT NUMBER ORIGIN DESTINATION ROUTE BLOCK TIME FLIGHT TIME FUEL USED (LB) PILOT
2020-04-06UAL2396KSFO KIAH 3.63.220380Dan Downs
2020-02-22UAL1973KIAH KSFO 4.13.823607Pete Locascio
2020-02-09UAL519KIAD KIAH 3.12.819301Steven Perry
2020-01-20UAL172KBWI KIAD 0.40.22135Michael Roth
2020-01-02UAL172KMEM KBWI 2.11.811499Jhan Jensen
2019-11-23UAL519KIAH KMEM 1.317578Steven Perry
2019-11-16UAL1116KSFO KIAH 3.53.221910Matthew Gales
2019-11-15UAL650PHNL KSFO 5.24.730935Kyle Rodgers
2019-11-13UAL1670KSFO PHNL 5.95.233864Kyle Rodgers
2019-11-12UAL9812KMCI KSFO 3.83.321369Kyle Rodgers